Time;durP1;ratioP1;P1;durP2;ratioP2;P2;SDS_P1;SDS_P2;PMS_P1;PMS_P2;Temp;Humidity;BMP_temperature;BMP_pressure;BME280_temperature;BME280_humidity;BME280_pressure;Samples;Min_cycle;Max_cycle;Signal;HPM_P1;HPM_P2
2022/10/13 00:00:28;;;;;;;7.88;2.28;;;;;;;9.58;44.52;96890.06;6296281;28;20044;-68
2022/10/13 00:03:30;;;;;;;12.95;2.13;;;;;;;9.56;44.48;96873.53;6295617;28;20126;-69
2022/10/13 00:06:33;;;;;;;15.43;2.10;;;;;;;9.55;44.42;96864.81;6296097;28;20036;-68
2022/10/13 00:09:35;;;;;;;8.70;2.22;;;;;;;9.54;44.40;96867.53;6295885;28;20036;-68
2022/10/13 00:12:38;;;;;;;10.48;2.15;;;;;;;9.54;44.20;96868.41;6296211;28;20052;-69
2022/10/13 00:15:41;;;;;;;8.15;2.80;;;;;;;9.55;43.77;96871.88;6296285;28;20055;-69
2022/10/13 00:18:46;;;;;;;12.05;2.38;;;;;;;9.57;44.07;96870.00;6294634;28;20513;-68
2022/10/13 00:21:47;;;;;;;8.90;2.40;;;;;;;9.58;43.86;96863.78;6295717;28;20391;-68
2022/10/13 00:24:52;;;;;;;12.65;2.33;;;;;;;9.61;43.33;96868.84;6295885;28;20532;-69
2022/10/13 00:27:54;;;;;;;12.00;2.50;;;;;;;9.63;42.77;96861.72;6295940;28;20052;-68
2022/10/13 00:30:56;;;;;;;10.25;2.53;;;;;;;9.70;42.27;96867.44;6296042;28;20045;-67
2022/10/13 00:34:01;;;;;;;14.75;2.63;;;;;;;9.70;42.23;96868.28;6295551;28;20044;-68
2022/10/13 00:37:07;;;;;;;17.42;3.35;;;;;;;9.73;41.89;96857.59;6295606;28;20478;-68
2022/10/13 00:40:09;;;;;;;11.05;2.75;;;;;;;9.72;41.83;96850.66;6295736;28;20048;-68
2022/10/13 00:43:19;;;;;;;9.05;2.45;;;;;;;9.74;42.01;96843.53;6294080;28;20048;-68
2022/10/13 00:46:22;;;;;;;8.85;2.75;;;;;;;9.67;42.07;96848.28;6295387;28;20533;-69
2022/10/13 00:49:23;;;;;;;9.57;2.55;;;;;;;9.64;41.82;96843.22;6295326;28;20044;-69
2022/10/13 00:52:29;;;;;;;8.10;2.42;;;;;;;9.58;41.94;96848.03;6295494;28;20051;-70
2022/10/13 00:55:37;;;;;;;5.45;2.22;;;;;;;9.50;41.63;96859.00;6294682;28;20048;-69
2022/10/13 00:58:39;;;;;;;6.97;2.17;;;;;;;9.38;41.86;96855.34;6295398;28;20059;-69
2022/10/13 01:01:41;;;;;;;9.88;2.30;;;;;;;9.31;41.87;96846.13;6295400;28;20067;-68
2022/10/13 01:04:46;;;;;;;;;;;;;;;9.28;41.79;96843.69;6295733;28;20046;-68
2022/10/13 01:07:49;;;;;;;11.00;2.10;;;;;;;9.29;41.85;96842.78;6295017;28;19920;-68
2022/10/13 01:11:06;;;;;;;13.27;2.55;;;;;;;9.37;41.47;96840.53;6295085;28;20049;-69
2022/10/13 01:14:28;;;;;;;8.75;2.30;;;;;;;9.38;41.31;96842.22;6295125;28;20053;-69
2022/10/13 01:17:37;;;;;;;10.32;2.47;;;;;;;9.40;41.20;96845.59;6300212;28;20514;-68
2022/10/13 01:20:54;;;;;;;7.95;2.40;;;;;;;9.43;41.30;96852.44;6299343;28;20414;-70
2022/10/13 01:24:25;;;;;;;6.50;1.90;;;;;;;9.44;41.10;96841.81;6299915;28;20048;-69
2022/10/13 01:28:04;;;;;;;7.88;1.83;;;;;;;9.45;41.31;96840.03;6299777;28;20032;-69
2022/10/13 01:31:25;;;;;;;6.53;1.65;;;;;;;9.48;41.28;96831.13;6300061;28;20040;-69
2022/10/13 01:34:39;;;;;;;6.13;2.13;;;;;;;9.49;41.47;96830.22;6299785;28;20139;-69
2022/10/13 01:37:53;;;;;;;9.98;2.20;;;;;;;9.44;41.62;96825.22;6299842;28;20044;-70
2022/10/13 01:41:04;;;;;;;5.13;2.10;;;;;;;9.46;41.62;96809.41;6299629;28;20056;-69
2022/10/13 01:44:28;;;;;;;11.25;2.03;;;;;;;9.48;41.46;96812.75;6299354;28;20055;-69
2022/10/13 01:47:34;;;;;;;10.85;2.47;;;;;;;9.41;41.89;96822.78;6299171;28;20047;-69
2022/10/13 01:50:41;;;;;;;10.25;2.28;;;;;;;9.34;41.56;96819.72;6299595;28;20078;-68
2022/10/13 01:53:48;;;;;;;13.60;2.40;;;;;;;9.32;41.53;96810.22;6299484;28;20119;-68
2022/10/13 01:56:54;;;;;;;6.80;1.95;;;;;;;9.29;41.80;96792.03;6299191;28;20056;-68
2022/10/13 01:59:57;;;;;;;10.63;2.05;;;;;;;9.30;41.86;96794.56;6297935;28;20048;-68
2022/10/13 02:03:10;;;;;;;7.37;2.00;;;;;;;9.31;41.75;96790.97;6298778;28;20045;-69
2022/10/13 02:06:21;;;;;;;6.07;2.58;;;;;;;9.31;41.61;96801.47;6299091;28;20050;-68
2022/10/13 02:09:36;;;;;;;7.50;2.35;;;;;;;9.31;41.79;96793.59;6299123;28;20036;-69
2022/10/13 02:12:48;;;;;;;12.57;2.88;;;;;;;9.29;41.79;96806.00;6298698;28;20041;-69
2022/10/13 02:15:55;;;;;;;10.85;2.25;;;;;;;9.26;41.67;96787.81;6298829;28;20047;-70
2022/10/13 02:19:07;;;;;;;7.32;2.17;;;;;;;9.25;41.95;96791.38;6298796;28;20046;-69
2022/10/13 02:22:16;;;;;;;10.55;2.20;;;;;;;9.26;41.76;96785.19;6298944;28;20040;-68
2022/10/13 02:25:20;;;;;;;5.57;1.92;;;;;;;9.24;41.80;96787.06;6298928;28;20052;-69
2022/10/13 02:28:23;;;;;;;3.67;2.00;;;;;;;9.22;41.97;96781.06;6297489;28;20048;-70
2022/10/13 02:31:27;;;;;;;6.45;1.88;;;;;;;9.22;41.97;96778.44;6298537;28;20409;-70
2022/10/13 02:34:29;;;;;;;5.93;1.90;;;;;;;9.22;41.91;96773.16;6297951;28;20044;-69
2022/10/13 02:37:34;;;;;;;6.25;1.70;;;;;;;9.20;41.99;96775.91;6298401;28;20037;-68
2022/10/13 02:40:35;;;;;;;8.63;1.80;;;;;;;9.20;42.01;96780.31;6298117;28;20114;-69
2022/10/13 02:43:37;;;;;;;4.30;2.60;;;;;;;9.14;42.17;96772.78;6298373;28;20541;-69
2022/10/13 02:46:39;;;;;;;10.82;2.20;;;;;;;9.14;41.99;96775.41;6298015;28;20086;-69
2022/10/13 02:49:40;;;;;;;8.68;2.38;;;;;;;9.18;42.25;96782.19;6297254;28;20490;-70
2022/10/13 02:52:44;;;;;;;9.10;2.88;;;;;;;9.17;42.39;96764.72;6297667;28;20041;-68
2022/10/13 02:55:45;;;;;;;5.30;2.55;;;;;;;9.22;42.37;96767.91;6297684;28;20052;-70
2022/10/13 02:58:49;;;;;;;6.00;2.25;;;;;;;9.28;42.70;96775.41;6297439;28;20580;-69
2022/10/13 03:01:51;;;;;;;9.77;3.13;;;;;;;9.36;42.33;96785.47;6297246;28;20137;-68
2022/10/13 03:04:53;;;;;;;9.35;2.55;;;;;;;9.46;42.23;96772.63;6297709;28;20136;-68
2022/10/13 03:07:57;;;;;;;6.20;2.10;;;;;;;9.57;42.04;96767.56;6297508;28;20048;-68
2022/10/13 03:10:58;;;;;;;10.20;2.67;;;;;;;9.70;41.82;96755.31;6297090;28;20070;-68
2022/10/13 03:14:02;;;;;;;8.57;2.20;;;;;;;9.82;42.09;96759.81;6297084;28;20135;-68
2022/10/13 03:17:06;;;;;;;8.35;2.20;;;;;;;9.92;41.80;96761.84;6297015;28;20050;-68
2022/10/13 03:20:08;;;;;;;9.20;2.22;;;;;;;9.99;41.70;96773.63;6297386;28;20514;-68
2022/10/13 03:23:12;;;;;;;10.57;2.78;;;;;;;10.08;41.49;96763.38;6296166;28;20581;-69
2022/10/13 03:26:16;;;;;;;7.20;2.30;;;;;;;10.15;41.25;96758.56;6296950;28;20040;-69
2022/10/13 03:29:18;;;;;;;7.72;3.05;;;;;;;10.18;41.24;96753.09;6296439;28;20430;-69
2022/10/13 03:32:19;;;;;;;13.43;4.25;;;;;;;10.17;41.33;96745.34;6296880;28;20304;-69
2022/10/13 03:35:21;;;;;;;10.35;3.13;;;;;;;10.02;41.43;96771.66;6295508;28;20032;-69
2022/10/13 03:38:25;;;;;;;14.25;4.25;;;;;;;9.89;42.02;96778.66;6296669;28;20067;-69
2022/10/13 03:41:28;;;;;;;;;;;;;;;9.84;41.80;96785.97;6296492;28;20452;-69
2022/10/13 03:44:32;;;;;;;9.00;2.95;;;;;;;9.93;41.70;96784.53;6296536;28;20305;-69
2022/10/13 03:47:36;;;;;;;8.60;3.38;;;;;;;10.13;41.48;96786.72;6296465;28;20517;-69
2022/10/13 03:50:37;;;;;;;7.68;2.42;;;;;;;10.28;40.97;96782.31;6296191;28;20422;-68
2022/10/13 03:53:43;;;;;;;11.25;2.70;;;;;;;10.41;40.43;96779.72;6296259;28;20048;-69
2022/10/13 03:56:45;;;;;;;6.97;1.80;;;;;;;10.41;40.27;96785.81;6296335;28;20127;-69
2022/10/13 03:59:55;;;;;;;6.35;2.38;;;;;;;10.39;40.13;96776.34;6296190;28;20033;-69
2022/10/13 04:02:56;;;;;;;7.38;1.92;;;;;;;10.19;40.39;96786.38;6296010;28;20036;-68
2022/10/13 04:06:02;;;;;;;9.52;2.42;;;;;;;10.08;40.64;96796.72;6295238;28;20047;-69
2022/10/13 04:09:09;;;;;;;10.00;2.20;;;;;;;10.06;40.58;96795.97;6295663;28;20048;-68
2022/10/13 04:12:16;;;;;;;8.25;2.42;;;;;;;10.09;40.50;96790.50;6295858;28;20106;-68
2022/10/13 04:15:18;;;;;;;11.07;2.40;;;;;;;10.22;40.41;96794.06;6295449;28;20067;-68
2022/10/13 04:18:19;;;;;;;11.80;2.92;;;;;;;10.38;40.18;96800.97;6295641;28;20505;-68
2022/10/13 04:21:29;;;;;;;;;;;;;;;10.53;39.81;96789.41;6296082;28;20040;-69
2022/10/13 04:24:32;;;;;;;10.43;3.25;;;;;;;10.61;39.94;96792.41;6295812;28;19977;-69
2022/10/13 04:27:38;;;;;;;;;;;;;;;10.76;39.68;96780.88;6295773;28;20048;-69
2022/10/13 04:30:42;;;;;;;12.02;2.65;;;;;;;10.89;39.45;96782.66;6295533;28;20065;-69
2022/10/13 04:33:49;;;;;;;8.27;2.40;;;;;;;11.00;39.48;96767.81;6295559;28;20040;-69
2022/10/13 04:36:53;;;;;;;9.95;2.63;;;;;;;11.24;39.44;96760.03;6295315;28;20036;-69
2022/10/13 04:40:00;;;;;;;8.98;2.53;;;;;;;11.54;38.86;96758.81;6295478;28;20250;-69
2022/10/13 04:43:01;;;;;;;3.70;2.05;;;;;;;11.82;38.75;96762.16;6295276;28;20044;-70
2022/10/13 04:46:09;;;;;;;3.30;1.63;;;;;;;12.15;37.96;96760.72;6295193;28;20516;-69
2022/10/13 04:49:14;;;;;;;5.78;2.15;;;;;;;12.43;37.34;96757.72;6295022;28;20055;-69
2022/10/13 04:52:19;;;;;;;6.47;1.95;;;;;;;12.68;37.11;96771.72;6295343;28;20036;-68
2022/10/13 04:55:20;;;;;;;4.30;1.70;;;;;;;12.92;36.82;96761.94;6295286;28;20055;-69
2022/10/13 04:58:24;;;;;;;6.25;2.15;;;;;;;13.19;36.27;96766.06;6295300;28;20502;-69
2022/10/13 05:01:26;;;;;;;7.65;1.77;;;;;;;13.41;35.67;96762.63;6294643;28;20569;-69
2022/10/13 05:04:32;;;;;;;5.70;1.85;;;;;;;13.64;35.26;96752.91;6295137;28;20426;-69
2022/10/13 05:07:36;;;;;;;6.35;1.85;;;;;;;14.08;34.45;96740.56;6295157;28;20486;-69
2022/10/13 05:10:42;;;;;;;7.25;2.08;;;;;;;14.53;33.74;96751.03;6294988;28;20055;-69
2022/10/13 05:13:43;;;;;;;8.68;2.58;;;;;;;14.78;33.38;96745.38;6294925;28;20047;-68
2022/10/13 05:16:45;;;;;;;5.70;2.20;;;;;;;14.90;33.18;96742.66;6294729;28;20514;-68
2022/10/13 05:19:48;;;;;;;8.80;2.28;;;;;;;15.09;32.86;96724.25;6294434;28;20041;-68
2022/10/13 05:22:51;;;;;;;10.65;2.80;;;;;;;15.25;32.54;96710.50;6294961;28;20498;-69
2022/10/13 05:25:53;;;;;;;10.60;2.90;;;;;;;15.64;31.93;96726.56;6294966;28;20040;-69
2022/10/13 05:28:58;;;;;;;10.40;3.03;;;;;;;16.82;30.26;96732.78;6294569;28;20045;-69
2022/10/13 05:32:00;;;;;;;10.35;2.40;;;;;;;17.66;28.93;96723.16;6295062;28;20055;-69
2022/10/13 05:35:01;;;;;;;8.15;2.47;;;;;;;17.86;28.66;96716.81;6295029;28;20071;-69
2022/10/13 05:38:07;;;;;;;11.80;2.92;;;;;;;18.00;28.35;96719.94;6294839;28;20494;-69
2022/10/13 05:41:14;;;;;;;12.63;3.88;;;;;;;19.51;26.68;96722.53;6294540;28;20044;-68
2022/10/13 05:44:21;;;;;;;10.10;2.95;;;;;;;22.02;23.36;96717.66;6293605;28;20040;-69
2022/10/13 05:47:27;;;;;;;7.55;1.63;;;;;;;23.47;22.00;96721.34;6294505;28;20048;-68
2022/10/13 05:50:30;;;;;;;7.50;2.15;;;;;;;23.95;21.11;96716.44;6294591;28;20044;-69
2022/10/13 05:53:38;;;;;;;8.15;2.17;;;;;;;22.59;21.93;96699.44;6294410;28;20417;-69
2022/10/13 05:56:47;;;;;;;6.82;1.95;;;;;;;21.03;23.71;96688.50;6294018;28;20060;-68
2022/10/13 06:00:17;;;;;;;5.78;1.63;;;;;;;20.13;25.03;96683.09;6294514;28;20186;-68
2022/10/13 06:03:24;;;;;;;5.70;1.63;;;;;;;19.75;25.02;96692.47;6296415;28;20055;-69
2022/10/13 06:06:28;;;;;;;6.68;2.00;;;;;;;19.46;25.15;96687.50;6298878;28;20047;-69
2022/10/13 06:09:36;;;;;;;10.20;2.50;;;;;;;19.10;25.81;96690.28;6298920;28;20081;-69
2022/10/13 06:12:38;;;;;;;5.82;2.30;;;;;;;18.70;25.86;96680.13;6298550;28;20131;-69
2022/10/13 06:15:42;;;;;;;9.60;2.42;;;;;;;18.47;26.23;96677.13;6298965;28;20049;-69
2022/10/13 06:18:46;;;;;;;6.57;2.65;;;;;;;18.71;26.06;96682.66;6298580;28;20048;-68
2022/10/13 06:21:47;;;;;;;8.15;2.25;;;;;;;19.24;25.37;96679.03;6298381;28;20395;-69
2022/10/13 06:24:49;;;;;;;5.85;2.25;;;;;;;20.79;23.55;96681.31;6298729;28;20494;-68
2022/10/13 06:27:50;;;;;;;5.18;2.58;;;;;;;23.38;21.02;96674.09;6298457;28;20514;-69
2022/10/13 06:30:56;;;;;;;9.65;2.88;;;;;;;24.37;20.14;96678.06;6298557;28;20143;-69
2022/10/13 06:34:04;;;;;;;9.52;2.47;;;;;;;24.32;20.16;96671.59;6298496;28;20041;-69
2022/10/13 06:37:08;;;;;;;11.23;3.65;;;;;;;23.78;20.80;96669.28;6298520;28;20102;-69
2022/10/13 06:40:10;;;;;;;10.07;3.15;;;;;;;22.83;21.46;96660.84;6298301;28;20037;-69
2022/10/13 06:43:12;;;;;;;7.90;2.80;;;;;;;22.05;22.52;96661.03;6297961;28;20393;-69
2022/10/13 06:46:16;;;;;;;9.10;2.35;;;;;;;21.38;23.03;96648.97;6297959;28;20051;-69
2022/10/13 06:49:24;;;;;;;8.88;2.85;;;;;;;20.90;23.57;96648.06;6297898;28;20055;-68
2022/10/13 06:52:25;;;;;;;6.38;2.63;;;;;;;20.58;23.53;96646.22;6298066;28;20080;-69
2022/10/13 06:55:26;;;;;;;9.63;3.30;;;;;;;20.49;23.86;96637.34;6297589;28;20033;-69
2022/10/13 06:58:34;;;;;;;10.25;2.47;;;;;;;20.44;23.88;96639.72;6297900;28;20421;-68
2022/10/13 07:01:35;;;;;;;12.32;2.70;;;;;;;20.37;23.88;96633.34;6297718;28;20139;-68
2022/10/13 07:04:37;;;;;;;6.63;2.60;;;;;;;20.38;24.00;96617.16;6297496;28;20036;-68
2022/10/13 07:07:38;;;;;;;6.95;2.08;;;;;;;20.60;23.72;96629.03;6297851;28;20044;-68
2022/10/13 07:10:40;;;;;;;6.57;2.40;;;;;;;20.78;23.32;96625.34;6297259;28;20501;-68
2022/10/13 07:13:44;;;;;;;8.70;2.60;;;;;;;21.16;23.03;96622.94;6297299;28;20040;-69
2022/10/13 07:16:48;;;;;;;9.23;2.30;;;;;;;22.07;22.16;96626.88;6297163;28;20083;-69
2022/10/13 07:19:51;;;;;;;9.00;1.95;;;;;;;23.36;20.90;96636.69;6297114;28;20525;-69
2022/10/13 07:22:55;;;;;;;6.22;1.85;;;;;;;25.95;18.58;96630.97;6296763;28;20048;-69
2022/10/13 07:26:00;;;;;;;11.15;1.63;;;;;;;30.40;15.02;96633.34;6297087;28;20049;-69
2022/10/13 07:29:07;;;;;;;7.30;2.13;;;;;;;33.82;12.96;96633.13;6297030;28;20044;-69
2022/10/13 07:32:09;;;;;;;6.82;1.85;;;;;;;33.65;12.71;96626.91;6296903;28;20053;-69
2022/10/13 07:35:11;;;;;;;10.00;2.72;;;;;;;32.38;13.09;96624.53;6296751;28;20048;-69
2022/10/13 07:38:15;;;;;;;10.20;2.78;;;;;;;33.25;12.99;96626.03;6297070;28;20036;-69
2022/10/13 07:41:19;;;;;;;14.57;6.68;;;;;;;34.05;11.89;96617.59;6296628;28;20127;-69
2022/10/13 07:44:21;;;;;;;10.18;4.10;;;;;;;34.14;11.86;96618.78;6296823;28;20052;-69
2022/10/13 07:47:28;;;;;;;7.68;2.72;;;;;;;34.47;11.16;96614.22;6296644;28;20040;-69
2022/10/13 07:50:30;;;;;;;6.65;2.25;;;;;;;34.68;11.30;96609.81;6296480;28;20060;-70
2022/10/13 07:53:34;;;;;;;7.72;2.20;;;;;;;33.88;11.65;96602.09;6296584;28;20067;-68
2022/10/13 07:56:35;;;;;;;9.20;2.40;;;;;;;34.26;11.42;96597.66;6296177;28;20120;-68
2022/10/13 07:59:37;;;;;;;6.93;2.13;;;;;;;35.96;10.37;96606.03;6296587;28;20052;-68
2022/10/13 08:02:38;;;;;;;6.90;2.75;;;;;;;36.98;10.03;96597.22;6296458;28;20126;-68
2022/10/13 08:05:44;;;;;;;4.65;1.75;;;;;;;37.00;9.85;96595.00;6296121;28;20040;-68
2022/10/13 08:08:49;;;;;;;2.83;1.30;;;;;;;38.38;8.81;96594.63;6295980;28;20383;-69
2022/10/13 08:11:53;;;;;;;3.00;0.85;;;;;;;40.23;8.07;96596.47;6295939;28;20044;-70
2022/10/13 08:14:57;;;;;;;3.22;1.08;;;;;;;39.13;8.30;96586.13;6295555;28;20045;-69
2022/10/13 08:17:58;;;;;;;3.03;1.30;;;;;;;37.65;8.91;96578.75;6295711;28;20044;-69
2022/10/13 08:21:03;;;;;;;5.90;1.33;;;;;;;35.16;10.17;96569.75;6296036;28;20457;-69
2022/10/13 08:24:12;;;;;;;6.03;2.20;;;;;;;34.63;10.71;96564.16;6294964;28;20041;-68
2022/10/13 08:27:22;;;;;;;3.75;1.45;;;;;;;34.07;10.85;96560.84;6295628;28;20417;-68
2022/10/13 08:30:26;;;;;;;5.13;2.35;;;;;;;31.93;12.04;96548.28;6295718;28;20066;-69
2022/10/13 08:33:33;;;;;;;2.83;1.52;;;;;;;29.82;13.34;96533.53;6295614;28;20561;-69
2022/10/13 08:36:37;;;;;;;2.38;1.30;;;;;;;28.60;14.46;96525.25;6295328;28;20055;-70
2022/10/13 08:39:43;;;;;;;3.15;1.50;;;;;;;27.98;14.90;96516.94;6295314;28;20391;-68
2022/10/13 08:42:45;;;;;;;2.85;1.52;;;;;;;27.45;15.42;96512.63;6295355;28;20041;-68
2022/10/13 08:45:57;;;;;;;3.63;1.77;;;;;;;27.15;15.49;96511.44;6295579;28;20060;-69
2022/10/13 08:49:00;;;;;;;3.60;1.08;;;;;;;26.91;15.86;96504.88;6295344;28;20047;-69
2022/10/13 08:52:12;;;;;;;1.77;0.85;;;;;;;26.90;15.96;96508.63;6295623;28;20053;-69
2022/10/13 08:55:42;;;;;;;6.20;3.67;;;;;;;26.45;16.12;96503.06;6295475;28;20036;-69
2022/10/13 08:58:47;;;;;;;4.85;2.47;;;;;;;25.49;16.89;96496.88;6295355;28;20062;-69
2022/10/13 09:01:54;;;;;;;3.00;1.30;;;;;;;24.92;17.04;96495.38;6295023;28;20182;-69
2022/10/13 09:04:57;;;;;;;3.53;1.27;;;;;;;24.18;17.74;96499.38;6295208;28;20657;-69
2022/10/13 09:08:10;;;;;;;5.22;1.20;;;;;;;23.26;18.70;96489.31;6295140;28;20047;-69
2022/10/13 09:11:14;;;;;;;2.00;1.25;;;;;;;22.66;19.19;96482.31;6293097;28;20522;-69
2022/10/13 09:14:24;;;;;;;2.83;1.23;;;;;;;22.39;19.75;96489.13;6295368;28;20123;-69
2022/10/13 09:17:27;;;;;;;2.00;0.95;;;;;;;22.07;20.21;96479.53;6295174;28;20194;-70
2022/10/13 09:20:29;;;;;;;1.30;0.90;;;;;;;21.45;21.18;96475.97;6294962;28;20044;-69
2022/10/13 09:23:30;;;;;;;1.42;0.80;;;;;;;20.62;21.95;96481.84;6294619;28;20063;-68
2022/10/13 09:26:39;;;;;;;3.55;1.13;;;;;;;20.31;22.32;96479.88;6295080;28;20036;-69
2022/10/13 09:29:43;;;;;;;6.43;1.27;;;;;;;19.87;22.46;96498.09;6294632;28;20044;-68
2022/10/13 09:32:45;;;;;;;1.43;1.30;;;;;;;19.54;23.61;96476.72;6294954;28;20052;-70
2022/10/13 09:36:05;;;;;;;1.75;1.27;;;;;;;18.96;24.36;96483.72;6295839;28;20052;-69
2022/10/13 09:39:15;;;;;;;2.22;0.98;;;;;;;18.80;24.09;96487.16;6299519;28;20044;-69
2022/10/13 09:42:29;;;;;;;2.88;1.38;;;;;;;18.23;24.47;96484.19;6299383;28;20044;-69
2022/10/13 09:45:31;;;;;;;3.13;1.50;;;;;;;17.97;24.46;96475.31;6299387;28;20139;-69
2022/10/13 09:48:35;;;;;;;2.42;1.30;;;;;;;17.81;24.89;96482.19;6299332;28;20036;-69
2022/10/13 09:51:44;;;;;;;1.00;0.90;;;;;;;17.92;24.76;96489.13;6299218;28;20102;-69
2022/10/13 09:54:50;;;;;;;2.33;1.10;;;;;;;17.38;25.74;96480.25;6299232;28;20036;-69
2022/10/13 09:57:54;;;;;;;2.47;1.42;;;;;;;17.34;26.00;96479.75;6299020;28;20067;-70
2022/10/13 10:00:59;;;;;;;1.10;0.98;;;;;;;17.12;26.23;96477.50;6299118;28;20139;-69
2022/10/13 10:04:05;;;;;;;1.60;1.20;;;;;;;17.03;26.58;96472.09;6298654;28;20082;-69
2022/10/13 10:07:19;;;;;;;1.05;0.90;;;;;;;16.99;26.58;96475.22;6298641;28;20040;-69
2022/10/13 10:10:30;;;;;;;1.58;0.80;;;;;;;17.05;26.38;96480.78;6298780;28;20446;-69
2022/10/13 10:13:32;;;;;;;1.48;1.10;;;;;;;17.13;26.34;96481.84;6298408;28;20036;-70
2022/10/13 10:16:41;;;;;;;2.30;1.02;;;;;;;17.06;26.37;96482.44;6298545;28;20045;-68
2022/10/13 10:20:13;;;;;;;2.38;0.98;;;;;;;16.94;26.24;96478.31;6298502;28;20526;-70
2022/10/13 10:23:50;;;;;;;1.98;1.10;;;;;;;16.65;26.70;96483.75;6298101;28;20048;-69
2022/10/13 10:27:14;;;;;;;2.45;1.10;;;;;;;16.45;27.25;96490.13;6297661;28;20048;-70
2022/10/13 10:30:19;;;;;;;3.28;1.30;;;;;;;15.99;27.75;96492.59;6298118;28;20044;-69
2022/10/13 10:33:39;;;;;;;1.95;0.95;;;;;;;15.64;28.47;96488.69;6298203;28;20058;-69
2022/10/13 10:36:48;;;;;;;2.33;1.30;;;;;;;15.37;29.03;96481.47;6298424;28;20044;-69
2022/10/13 10:40:14;;;;;;;1.88;1.33;;;;;;;15.41;29.16;96500.56;6297941;28;20044;-70
2022/10/13 10:43:25;;;;;;;3.67;2.25;;;;;;;15.12;29.89;96493.44;6298196;28;20036;-70
2022/10/13 10:46:41;;;;;;;4.85;1.83;;;;;;;14.91;30.38;96495.31;6298098;28;20110;-70
2022/10/13 10:49:47;;;;;;;1.73;1.27;;;;;;;14.80;30.67;96489.16;6297449;28;20565;-69
2022/10/13 10:53:25;;;;;;;2.17;1.17;;;;;;;14.86;30.84;96492.22;6298384;28;20048;-69
2022/10/13 10:56:43;;;;;;;2.40;1.30;;;;;;;14.53;31.47;96488.94;6297958;28;20044;-70
2022/10/13 11:00:04;;;;;;;3.13;1.60;;;;;;;14.55;31.69;96484.31;6297612;28;20048;-70
2022/10/13 11:03:50;;;;;;;2.03;1.50;;;;;;;14.70;31.73;96488.28;6297935;28;20043;-69
2022/10/13 11:06:58;;;;;;;4.50;1.85;;;;;;;14.44;32.08;96489.72;6297107;28;20446;-69
2022/10/13 11:10:20;;;;;;;3.13;1.80;;;;;;;14.26;32.30;96498.22;6297539;28;20135;-69
2022/10/13 11:13:22;;;;;;;2.40;1.33;;;;;;;14.22;32.42;96486.25;6297376;28;20106;-69
2022/10/13 11:16:40;;;;;;;8.98;4.43;;;;;;;14.09;32.75;96493.53;6297909;28;20130;-69
2022/10/13 11:19:47;;;;;;;8.65;4.13;;;;;;;14.08;32.84;96494.53;6296231;28;20049;-70
2022/10/13 11:22:57;;;;;;;12.50;5.05;;;;;;;14.02;32.97;96503.81;6297107;28;20036;-70
2022/10/13 11:26:30;;;;;;;13.80;7.18;;;;;;;14.00;33.23;96504.91;6297548;28;20052;-70
2022/10/13 11:29:56;;;;;;;6.18;3.92;;;;;;;13.99;33.29;96488.22;6296919;28;20056;-70
2022/10/13 11:32:58;;;;;;;5.32;2.80;;;;;;;13.86;33.53;96498.97;6296939;28;20041;-69
2022/10/13 11:36:27;;;;;;;4.38;2.40;;;;;;;13.92;33.66;96493.16;6296856;28;20040;-69
2022/10/13 11:40:02;;;;;;;4.70;2.40;;;;;;;13.89;33.79;96493.41;6296951;28;20422;-70
2022/10/13 11:43:11;;;;;;;2.58;1.77;;;;;;;14.03;33.67;96494.06;6294660;28;20045;-68
2022/10/13 11:46:18;;;;;;;4.18;1.73;;;;;;;13.96;34.04;96508.81;6296718;28;20099;-69
2022/10/13 11:49:55;;;;;;;3.38;1.85;;;;;;;14.17;33.71;96493.72;6296577;28;20036;-69
2022/10/13 11:53:46;;;;;;;5.05;2.60;;;;;;;14.05;34.16;96508.00;6296342;28;20040;-70
2022/10/13 11:56:53;;;;;;;2.10;1.33;;;;;;;14.05;34.51;96503.56;6286629;28;20048;-70
2022/10/13 11:59:57;;;;;;;4.70;1.60;;;;;;;13.89;35.10;96504.00;6294987;28;20056;-68
2022/10/13 12:02:59;;;;;;;4.63;1.92;;;;;;;13.87;34.86;96505.97;6296182;28;20040;-68
2022/10/13 12:06:31;;;;;;;2.55;1.10;;;;;;;14.05;34.79;96502.72;6296066;28;20040;-69
2022/10/13 12:09:52;;;;;;;1.95;1.20;;;;;;;14.93;33.46;96501.31;6295369;28;20048;-69
2022/10/13 12:13:00;;;;;;;3.05;1.70;;;;;;;15.79;31.93;96506.88;6296307;28;20049;-70
2022/10/13 12:16:07;;;;;;;3.05;1.88;;;;;;;16.59;30.80;96511.75;6296254;28;20060;-69
2022/10/13 12:19:23;;;;;;;7.93;4.10;;;;;;;17.55;29.36;96507.84;6295691;28;20067;-69
2022/10/13 12:22:30;;;;;;;5.13;3.28;;;;;;;17.38;29.62;96502.41;6295623;28;20036;-69
2022/10/13 12:25:35;;;;;;;8.52;3.92;;;;;;;17.10;30.11;96508.72;6295831;28;20413;-69
2022/10/13 12:28:50;;;;;;;5.95;2.85;;;;;;;16.44;31.04;96505.22;6295667;28;20447;-70
2022/10/13 12:31:57;;;;;;;5.65;3.10;;;;;;;15.72;32.43;96506.59;6295484;28;20540;-69
2022/10/13 12:35:26;;;;;;;6.20;3.40;;;;;;;15.27;33.53;96497.34;6295643;28;20040;-69
2022/10/13 12:38:27;;;;;;;4.75;2.83;;;;;;;14.71;34.47;96505.00;6295181;28;20055;-69
2022/10/13 12:41:35;;;;;;;3.28;1.90;;;;;;;14.45;34.90;96494.84;6295478;28;20060;-68
2022/10/13 12:44:39;;;;;;;5.43;2.95;;;;;;;14.08;35.74;96500.66;6295711;28;20040;-70
2022/10/13 12:47:44;;;;;;;5.20;2.73;;;;;;;13.69;36.64;96502.19;6295081;28;20056;-69
2022/10/13 12:50:46;;;;;;;5.72;3.50;;;;;;;13.58;36.94;96499.59;6294596;28;20096;-69
2022/10/13 12:53:48;;;;;;;4.72;2.70;;;;;;;13.28;37.79;96503.81;6294281;28;20130;-70
2022/10/13 12:56:56;;;;;;;3.60;1.98;;;;;;;13.22;38.13;96509.56;6294765;28;20048;-69
2022/10/13 13:00:04;;;;;;;6.53;2.30;;;;;;;12.91;38.72;96506.75;6294911;28;20056;-71
2022/10/13 13:03:24;;;;;;;3.72;2.00;;;;;;;12.91;39.06;96514.69;6294912;28;20040;-69
2022/10/13 13:06:35;;;;;;;2.58;1.50;;;;;;;12.67;39.67;96512.19;6294575;28;20052;-70
2022/10/13 13:09:58;;;;;;;5.07;1.48;;;;;;;12.42;40.08;96505.34;6294792;28;20036;-69
2022/10/13 13:13:14;;;;;;;4.72;2.03;;;;;;;12.30;40.51;96511.59;6299832;28;20042;-70
2022/10/13 13:16:20;;;;;;;3.33;1.90;;;;;;;11.96;41.19;96519.44;6299949;28;20090;-69
2022/10/13 13:19:24;;;;;;;3.30;2.20;;;;;;;11.84;41.55;96520.34;6299928;28;20041;-69
2022/10/13 13:22:26;;;;;;;3.42;2.42;;;;;;;11.73;41.87;96509.78;6299322;28;20044;-69
2022/10/13 13:25:29;;;;;;;2.80;1.75;;;;;;;11.62;41.93;96521.13;6299773;28;20037;-69
2022/10/13 13:28:33;;;;;;;3.00;1.95;;;;;;;11.49;42.20;96520.34;6298497;28;20561;-70
2022/10/13 13:31:35;;;;;;;6.50;2.72;;;;;;;11.57;42.14;96528.50;6299426;28;20183;-70
2022/10/13 13:34:36;;;;;;;5.95;3.10;;;;;;;11.62;41.83;96532.50;6299669;28;20491;-69
2022/10/13 13:37:49;;;;;;;4.38;2.78;;;;;;;11.60;41.94;96523.84;6299586;28;20040;-69
2022/10/13 13:40:54;;;;;;;5.43;2.40;;;;;;;11.54;42.04;96519.03;6299230;28;20063;-69
2022/10/13 13:43:56;;;;;;;5.53;2.97;;;;;;;11.65;42.11;96532.25;6297740;28;20041;-69
2022/10/13 13:46:58;;;;;;;4.80;2.33;;;;;;;11.61;42.15;96525.56;6299064;28;20079;-69
2022/10/13 13:50:02;;;;;;;3.72;1.90;;;;;;;11.59;42.49;96527.44;6298937;28;20422;-70
2022/10/13 13:53:10;;;;;;;3.10;2.20;;;;;;;11.46;43.20;96522.25;6299405;28;20123;-69
2022/10/13 13:56:16;;;;;;;3.25;1.73;;;;;;;11.40;43.74;96527.13;6299105;28;20036;-70
2022/10/13 13:59:20;;;;;;;3.50;2.13;;;;;;;11.36;44.41;96530.94;6299186;28;20124;-70
2022/10/13 14:02:22;;;;;;;4.10;2.25;;;;;;;11.18;44.86;96533.13;6298823;28;20494;-70
2022/10/13 14:05:23;;;;;;;4.20;2.50;;;;;;;11.08;45.44;96532.97;6299097;28;20048;-68
2022/10/13 14:08:34;;;;;;;3.65;2.47;;;;;;;10.94;46.04;96531.31;6298953;28;20410;-69
2022/10/13 14:11:38;;;;;;;2.90;2.40;;;;;;;10.85;46.55;96521.44;6299089;28;20048;-70
2022/10/13 14:14:42;;;;;;;4.28;2.50;;;;;;;10.78;46.90;96530.72;6298876;28;20044;-70
2022/10/13 14:17:43;;;;;;;3.35;2.20;;;;;;;10.71;47.49;96530.31;6298186;28;20090;-69
2022/10/13 14:20:48;;;;;;;3.50;2.30;;;;;;;10.65;47.96;96520.25;6298417;28;20502;-71
2022/10/13 14:23:49;;;;;;;3.20;2.00;;;;;;;10.59;48.46;96528.56;6296201;28;20133;-70
2022/10/13 14:26:51;;;;;;;4.03;2.25;;;;;;;10.66;48.67;96524.53;6298876;28;20053;-69
2022/10/13 14:29:52;;;;;;;2.33;2.10;;;;;;;10.67;48.73;96522.75;6298138;28;20075;-70
2022/10/13 14:32:53;;;;;;;4.03;1.90;;;;;;;10.62;48.84;96520.47;6298402;28;20036;-70
2022/10/13 14:36:02;;;;;;;3.70;2.60;;;;;;;10.66;48.93;96516.66;6298051;28;20426;-68
2022/10/13 14:39:03;;;;;;;4.10;2.38;;;;;;;10.58;49.29;96513.72;6297851;28;20074;-70
2022/10/13 14:42:07;;;;;;;6.57;2.80;;;;;;;10.51;49.97;96523.00;6297746;28;20064;-69